Latest Weather Observations for Murganella Airstrip

IDD60801

Issued at 8:31 am CST Sunday 1 March 2015 (issued every 30 minutes, with the page automatically refreshed every 10 minutes)

About weather observations | Map of weather stations | Latest weather observations for NT | Other Formats
Station Details ID: 014309 Name: MURGANELLA AIRSTRIP Lat: -11.55 Lon: 132.93 Height: 9.5 m
Data from the previous 72 hours. | See also: Recent months for locations in Northern Territory
Date/Time
CST
Temp
°C
App
Temp
°C
Dew
Point
Rel
Hum
%
Delta-T
°C
Wind Press
QNH
hPa
Press
MSL
hPa
Rain
since 9 am
mm
Dir
 
Spd
km/h
Gust
km/h
Spd
kts
Gust
kts
01/08:30am 26.4 33.0 26.4 100 0.0 S 4 6 2 3 1007.7 1007.6 0.0
01/08:00am 25.8 32.0 25.8 100 0.0 SW 4 6 2 3 1007.4 1007.3 0.0
01/07:30am 25.4 32.1 25.4 100 0.0 CALM 0 0 0 0 1006.6 1006.5 0.0
01/07:00am 25.1 31.6 25.1 100 0.0 CALM 0 0 0 0 1006.3 1006.2 0.0
01/06:30am 24.9 31.3 24.9 100 0.0 CALM 0 0 0 0 1005.8 1005.7 0.0
01/06:00am 24.9 31.3 24.9 100 0.0 CALM 0 0 0 0 1005.4 1005.3 0.0
01/05:30am 25.1 31.6 25.1 100 0.0 CALM 0 0 0 0 1004.9 1004.8 0.0
01/05:00am 24.8 31.1 24.8 100 0.0 CALM 0 0 0 0 1004.9 1004.8 0.0
01/04:30am 24.9 31.3 24.9 100 0.0 CALM 0 0 0 0 1005.1 1005.0 0.0
01/04:00am 24.7 30.6 24.7 100 0.0 WNW 2 4 1 2 1005.2 1005.1 0.0
01/03:30am 24.9 30.9 24.9 100 0.0 W 2 4 1 2 1005.3 1005.2 0.0
01/03:00am 25.3 30.8 25.3 100 0.0 SW 6 9 3 5 1005.7 1005.6 0.0
01/02:30am 25.9 31.6 25.9 100 0.0 WSW 7 15 4 8 1006.1 1006.0 0.0
01/02:00am 26.9 33.5 26.9 100 0.0 W 6 9 3 5 1006.1 1006.0 0.0
01/01:30am 27.0 33.6 27.0 100 0.0 WNW 6 9 3 5 1006.2 1006.1 0.0
01/01:00am 27.1 33.8 27.1 100 0.0 W 6 9 3 5 1006.5 1006.4 0.0
01/12:30am 27.3 33.9 27.3 100 0.0 WNW 7 13 4 7 1006.9 1006.8 0.0
01/12:00am 27.3 34.1 27.3 100 0.0 WNW 6 9 3 5 1007.2 1007.1 0.0
 
Date/Time
CST
Temp
°C
App
Temp
°C
Dew
Point
Rel
Hum
%
Delta-T
°C
Wind Press
QNH
hPa
Press
MSL
hPa
Rain
since 9 am
mm
Dir
 
Spd
km/h
Gust
km/h
Spd
kts
Gust
kts
28/11:30pm 27.3 34.5 27.3 100 0.0 WNW 4 9 2 5 1007.5 1007.4 0.0
28/11:00pm 27.0 34.0 27.0 100 0.0 WNW 4 6 2 3 1007.9 1007.8 0.0
28/10:30pm 26.2 33.4 26.2 100 0.0 CALM 0 0 0 0 1007.8 1007.7 0.0
28/10:00pm 25.9 32.9 25.9 100 0.0 CALM 0 0 0 0 1006.8 1006.7 0.0
28/09:30pm 26.1 33.3 26.1 100 0.0 CALM 0 4 0 2 1006.5 1006.4 0.0
28/09:00pm 26.5 33.9 26.5 100 0.0 CALM 0 0 0 0 1006.6 1006.5 0.0
28/08:30pm 26.8 34.4 26.8 100 0.0 CALM 0 0 0 0 1006.2 1006.1 0.0
28/08:00pm 27.7 35.4 27.5 99 0.1 W 2 4 1 2 1005.4 1005.3 0.0
28/07:30pm 28.4 34.7 26.0 87 1.7 W 4 4 2 2 1005.6 1005.5 0.0
28/07:00pm 29.1 34.6 25.3 80 2.7 WNW 6 11 3 6 1004.8 1004.7 0.0
28/06:30pm 30.0 35.1 25.5 77 3.2 WNW 9 15 5 8 1004.8 1004.7 0.0
28/06:00pm 31.0 36.6 26.9 79 3.0 W 11 19 6 10 1004.4 1004.3 0.0
28/05:30pm 31.5 37.6 27.0 77 3.3 W 9 19 5 10 1004.2 1004.1 0.0
28/05:00pm 32.3 39.7 28.4 80 2.9 W 7 19 4 10 1004.3 1004.2 0.0
28/04:30pm 31.4 37.9 28.2 83 2.3 WSW 11 24 6 13 1004.5 1004.4 0.0
28/04:00pm 29.9 37.6 29.2 96 0.5 WNW 9 20 5 11 1004.5 1004.4 0.0
28/03:30pm 30.4 36.7 28.4 89 1.5 NW 13 22 7 12 1004.9 1004.8 0.0
28/03:00pm 31.1 36.4 26.4 76 3.4 W 11 20 6 11 1005.1 1005.0 0.0
28/02:30pm 32.6 38.3 27.6 75 3.6 WSW 13 22 7 12 1005.3 1005.2 0.0
28/02:00pm 32.8 39.0 28.2 77 3.4 SSW 13 20 7 11 1005.5 1005.4 0.0
28/01:30pm 31.7 35.0 25.1 68 4.7 SW 17 32 9 17 1006.2 1006.1 0.0
28/01:00pm 32.4 37.1 26.7 72 4.1 SW 15 32 8 17 1006.7 1006.6 0.0
28/12:30pm 32.1 36.8 27.3 76 3.5 SW 17 26 9 14 1007.1 1007.0 0.0
28/12:00pm 32.0 37.7 28.1 80 2.9 SW 15 24 8 13 1007.4 1007.3 0.0
28/11:30am 31.6 37.8 28.8 85 2.1 SW 15 24 8 13 1007.5 1007.4 0.0
28/11:00am 30.8 39.8 30.4 98 0.3 SSW 7 15 4 8 1007.6 1007.5 0.0
28/10:30am 30.5 39.2 30.5 100 0.0 WSW 9 17 5 9 1007.6 1007.5 0.0
28/10:00am 29.7 38.3 29.7 100 0.0 SW 6 11 3 6 1007.9 1007.8 0.0
28/09:30am 28.2 36.1 28.2 100 0.0 WSW 4 7 2 4 1007.9 1007.8 0.0
28/09:00am 27.9 35.9 27.9 100 0.0 WNW 2 4 1 2 1008.1 1008.0 66.4
28/08:30am 27.0 34.4 27.0 100 0.0 W 2 6 1 3 1007.9 1007.8 66.4
28/08:00am 25.9 32.9 25.9 100 0.0 CALM 0 0 0 0 1007.4 1007.3 66.4
28/07:30am 25.5 32.3 25.5 100 0.0 CALM 0 0 0 0 1007.1 1007.0 66.4
28/07:00am 24.3 30.3 24.3 100 0.0 CALM 0 0 0 0 1006.7 1006.6 66.4
28/06:30am 23.8 29.5 23.8 100 0.0 CALM 0 0 0 0 1006.4 1006.3 66.4
28/06:00am 24.0 29.8 24.0 100 0.0 CALM 0 0 0 0 1006.1 1006.0 66.4
28/05:30am 23.9 29.7 23.9 100 0.0 CALM 0 0 0 0 1006.0 1005.9 66.4
28/05:00am 24.2 29.8 24.2 100 0.0 SSE 2 4 1 2 1006.0 1005.9 66.4
28/04:30am 24.2 29.8 24.2 100 0.0 SSE 2 4 1 2 1006.0 1005.9 66.4
28/04:00am 24.7 30.6 24.7 100 0.0 SW 2 4 1 2 1006.1 1006.0 66.2
28/03:30am 24.8 30.0 24.8 100 0.0 W 6 9 3 5 1006.2 1006.1 66.2
28/03:00am 24.5 29.5 24.5 100 0.0 WNW 6 9 3 5 1006.5 1006.4 66.2
28/02:30am 23.8 29.5 23.8 100 0.0 CALM 0 4 0 2 1007.3 1007.2 66.2
28/02:00am 23.5 29.1 23.5 100 0.0 CALM 0 0 0 0 1007.6 1007.5 66.2
28/01:30am 23.5 29.1 23.5 100 0.0 CALM 0 0 0 0 1007.4 1007.3 66.2
28/01:00am 23.4 28.9 23.4 100 0.0 CALM 0 2 0 1 1007.3 1007.2 66.2
28/12:30am 23.5 29.1 23.5 100 0.0 CALM 0 4 0 2 1008.1 1008.0 66.2
28/12:00am 23.6 28.5 23.6 100 0.0 NW 4 7 2 4 1008.6 1008.5 66.2
 
Date/Time
CST
Temp
°C
App
Temp
°C
Dew
Point
Rel
Hum
%
Delta-T
°C
Wind Press
QNH
hPa
Press
MSL
hPa
Rain
since 9 am
mm
Dir
 
Spd
km/h
Gust
km/h
Spd
kts
Gust
kts
27/11:30pm 23.8 28.8 23.8 100 0.0 WNW 4 6 2 3 1008.6 1008.5 66.2
27/11:00pm 23.8 28.8 23.8 100 0.0 SW 4 6 2 3 1008.5 1008.4 66.2
27/10:30pm 23.7 28.6 23.7 100 0.0 WSW 4 6 2 3 1008.1 1008.0 66.2
27/10:00pm 23.8 28.4 23.8 100 0.0 SSW 6 9 3 5 1008.1 1008.0 66.2
27/09:30pm 24.4 28.8 24.4 100 0.0 SW 9 15 5 8 1008.6 1008.5 66.0
27/09:00pm 25.2 30.5 25.2 100 0.0 WSW 7 13 4 7 1008.2 1008.1 66.0
27/08:30pm 26.0 32.0 26.0 100 0.0 W 6 7 3 4 1008.0 1007.9 66.0
27/08:00pm 25.9 32.2 25.9 100 0.0 W 4 6 2 3 1007.2 1007.1 65.8
27/07:30pm 25.8 32.8 25.8 100 0.0 CALM 0 0 0 0 1007.0 1006.9 65.6
27/07:00pm 25.6 32.4 25.6 100 0.0 CALM 0 0 0 0 1006.8 1006.7 65.6
27/06:30pm 25.8 32.8 25.8 100 0.0 CALM 0 0 0 0 1006.3 1006.2 65.6
27/06:00pm 25.6 32.4 25.6 100 0.0 CALM 0 0 0 0 1006.1 1006.0 65.6
27/05:30pm 25.4 32.1 25.4 100 0.0 CALM 0 0 0 0 1005.7 1005.6 65.4
27/05:00pm 25.2 31.8 25.2 100 0.0 CALM 0 2 0 1 1005.7 1005.6 65.2
27/04:30pm 25.1 30.9 25.1 100 0.0 NW 4 9 2 5 1005.3 1005.2 65.2
27/04:00pm 24.9 30.5 24.9 100 0.0 WNW 4 7 2 4 1005.3 1005.2 65.0
27/03:30pm 24.7 31.0 24.7 100 0.0 CALM 0 4 0 2 1005.5 1005.4 65.0
27/03:00pm 24.3 29.9 24.3 100 0.0 NNW 2 4 1 2 1005.8 1005.7 65.0
27/02:30pm 24.4 30.1 24.4 100 0.0 NNW 2 6 1 3 1006.3 1006.2 64.6
27/02:00pm 23.9 28.0 23.9 100 0.0 N 9 20 5 11 1006.6 1006.5 63.4
27/01:30pm 24.4 28.8 24.4 100 0.0 SW 9 24 5 13 1007.0 1006.9 38.0
27/01:00pm 25.1 27.8 25.1 100 0.0 NNE 20 28 11 15 1006.7 1006.6 14.0
27/12:47pm 25.3 28.3 25.3 100 0.0 N 19 37 10 20 1006.7 1006.6 3.2
27/12:30pm 30.5 39.8 30.1 98 0.3 SE 4 7 2 4 1006.7 1006.6 1.0
27/12:00pm 29.8 39.3 29.8 100 0.0 WSW 2 4 1 2 1007.5 1007.4 1.0
27/11:30am 31.1 38.0 27.7 82 2.5 WNW 7 13 4 7 1007.7 1007.6 0.2
27/11:00am 30.9 39.0 29.3 91 1.2 NNW 7 13 4 7 1007.8 1007.7 0.2
27/10:30am 29.8 37.8 28.9 95 0.7 W 6 11 3 6 1008.3 1008.2 0.2
27/10:00am 29.5 38.0 29.5 100 0.0 WNW 6 9 3 5 1008.5 1008.4 0.2
27/09:30am 29.1 37.6 29.1 100 0.0 W 4 7 2 4 1008.5 1008.4 0.0
27/09:00am 27.9 35.9 27.9 100 0.0 SSW 2 6 1 3 1008.2 1008.1 4.0
27/08:30am 27.0 34.8 27.0 100 0.0 CALM 0 2 0 1 1008.1 1008.0 4.0
27/08:00am 26.2 33.0 26.2 100 0.0 SE 2 4 1 2 1007.8 1007.7 4.0
27/07:30am 25.6 32.4 25.6 100 0.0 CALM 0 0 0 0 1007.2 1007.1 4.0
27/07:00am 25.7 32.6 25.7 100 0.0 CALM 0 0 0 0 1007.1 1007.0 4.0
27/06:30am 25.6 32.1 25.6 100 0.0 SSE 2 4 1 2 1006.8 1006.7 4.0
27/06:00am 25.6 32.1 25.6 100 0.0 SSE 2 4 1 2 1006.6 1006.5 4.0
27/05:30am 25.7 32.6 25.7 100 0.0 CALM 0 4 0 2 1006.2 1006.1 4.0
27/05:00am 25.7 32.6 25.7 100 0.0 CALM 0 0 0 0 1005.8 1005.7 4.0
27/04:30am 25.8 32.8 25.8 100 0.0 CALM 0 0 0 0 1005.8 1005.7 4.0
27/04:00am 25.8 32.8 25.8 100 0.0 CALM 0 0 0 0 1005.7 1005.6 4.0
27/03:30am 25.8 32.8 25.8 100 0.0 CALM 0 0 0 0 1005.9 1005.8 4.0
27/03:00am 25.8 32.8 25.8 100 0.0 CALM 0 0 0 0 1006.2 1006.1 4.0
27/02:30am 25.9 32.6 25.9 100 0.0 WNW 2 4 1 2 1006.1 1006.0 4.0
27/02:00am 25.6 31.7 25.6 100 0.0 W 4 9 2 5 1006.4 1006.3 4.0
27/01:30am 25.4 32.1 25.4 100 0.0 CALM 0 0 0 0 1006.8 1006.7 4.0
27/01:00am 25.4 32.1 25.4 100 0.0 CALM 0 0 0 0 1007.0 1006.9 4.0
27/12:30am 25.2 31.8 25.2 100 0.0 CALM 0 0 0 0 1007.6 1007.5 4.0
27/12:00am 25.3 31.9 25.3 100 0.0 CALM 0 0 0 0 1008.2 1008.1 4.0
 
Date/Time
CST
Temp
°C
App
Temp
°C
Dew
Point
Rel
Hum
%
Delta-T
°C
Wind Press
QNH
hPa
Press
MSL
hPa
Rain
since 9 am
mm
Dir
 
Spd
km/h
Gust
km/h
Spd
kts
Gust
kts
26/11:30pm 25.1 31.6 25.1 100 0.0 CALM 0 0 0 0 1008.5 1008.4 4.0
26/11:00pm 25.2 31.8 25.2 100 0.0 CALM 0 0 0 0 1008.9 1008.8 4.0
26/10:30pm 24.8 31.1 24.8 100 0.0 CALM 0 0 0 0 1008.6 1008.5 4.0
26/10:00pm 24.6 30.8 24.6 100 0.0 CALM 0 2 0 1 1008.3 1008.2 4.0
26/09:30pm 24.8 31.1 24.8 100 0.0 CALM 0 0 0 0 1007.7 1007.6 4.0
26/09:00pm 24.6 30.1 24.6 100 0.0 SSE 4 7 2 4 1007.7 1007.6 4.0
26/08:30pm 24.3 29.6 24.3 100 0.0 NW 4 9 2 5 1007.0 1006.9 4.0
26/08:00pm 24.2 29.0 24.2 100 0.0 WSW 6 9 3 5 1006.4 1006.3 4.0
26/07:30pm 24.0 27.8 24.0 100 0.0 NW 11 15 6 8 1006.2 1006.1 4.0
26/07:00pm 23.9 28.6 23.9 100 0.0 N 6 9 3 5 1006.4 1006.3 4.0
26/06:30pm 24.7 30.6 24.7 100 0.0 N 2 4 1 2 1007.0 1006.9 4.0
26/06:00pm 26.7 30.4 25.1 91 1.1 ESE 15 28 8 15 1006.8 1006.7 0.0
26/05:30pm 28.9 37.1 28.2 96 0.5 SSW 2 4 1 2 1006.6 1006.5 0.0
26/05:00pm 29.4 36.0 26.4 84 2.1 SSW 4 7 2 4 1005.7 1005.6 0.0
26/04:30pm 30.5 36.8 27.3 83 2.3 SSW 9 17 5 9 1005.8 1005.7 0.0
26/04:00pm 30.7 37.0 27.3 82 2.5 SW 9 15 5 8 1005.0 1004.9 0.0
26/03:30pm 31.7 36.8 26.7 75 3.6 WSW 13 20 7 11 1004.7 1004.6 0.0
26/03:00pm 31.8 38.1 27.9 80 2.9 SW 11 17 6 9 1004.8 1004.7 0.0
26/02:30pm 31.5 38.5 28.3 83 2.3 SW 9 15 5 8 1005.1 1005.0 0.0
26/02:00pm 31.8 39.2 28.3 82 2.6 SW 7 15 4 8 1005.4 1005.3 0.0
26/01:30pm 31.9 37.9 26.9 75 3.6 SW 9 13 5 7 1006.0 1005.9 0.0
26/01:00pm 31.6 37.9 27.3 78 3.1 WSW 9 15 5 8 1006.9 1006.8 0.0
26/12:30pm 31.3 38.3 28.3 84 2.2 WSW 9 13 5 7 1007.3 1007.2 0.0
26/12:00pm 31.5 38.3 28.0 82 2.6 SW 9 17 5 9 1007.6 1007.5 0.0
26/11:30am 31.0 37.9 27.6 82 2.5 WSW 7 13 4 7 1007.8 1007.7 0.0
26/11:00am 31.1 38.1 28.3 85 2.0 WSW 9 15 5 8 1008.1 1008.0 0.0
26/10:30am 30.4 38.3 29.5 95 0.7 SW 9 13 5 7 1008.5 1008.4 0.0
26/10:00am 29.9 38.5 29.9 100 0.0 WSW 7 13 4 7 1008.8 1008.7 0.0
26/09:30am 28.7 36.4 28.7 100 0.0 SW 7 11 4 6 1009.1 1009.0 0.0
26/09:00am 27.9 35.2 27.9 100 0.0 W 6 11 3 6 1009.1 1009.0 0.0

Other Formats:

Comma delimited format used in spreadsheet applications
http://www.bom.gov.au/fwo/IDD60801/IDD60801.94109.axf

JavaScript Object Notation format (JSON) in row-major order
http://www.bom.gov.au/fwo/IDD60801/IDD60801.94109.json